createdAt,value
2023-04-08T00:00:54.657Z,15.32
2023-04-08T00:03:21.581Z,15.60
2023-04-08T00:05:48.192Z,13.25
2023-04-08T00:08:14.613Z,12.88
2023-04-08T00:10:41.196Z,15.65
2023-04-08T00:13:07.657Z,14.18
2023-04-08T00:15:34.229Z,14.88
2023-04-08T00:18:01.113Z,15.98
2023-04-08T00:20:27.622Z,15.23
2023-04-08T00:22:54.086Z,14.45
2023-04-08T00:25:21.435Z,11.88
2023-04-08T00:27:48.695Z,14.52
2023-04-08T00:30:15.779Z,13.13
2023-04-08T00:32:42.172Z,16.85
2023-04-08T00:35:08.899Z,13.70
2023-04-08T00:37:35.414Z,13.27
2023-04-08T00:40:02.026Z,13.88
2023-04-08T00:42:30.759Z,13.40
2023-04-08T00:44:57.340Z,12.68
2023-04-08T00:47:24.172Z,14.80
2023-04-08T00:49:51.084Z,16.48
2023-04-08T00:52:17.531Z,13.45
2023-04-08T00:54:43.984Z,14.52
2023-04-08T00:57:10.520Z,16.85
2023-04-08T00:59:37.133Z,21.55
2023-04-08T01:02:12.587Z,21.85
2023-04-08T01:04:55.986Z,22.67
2023-04-08T01:07:27.025Z,24.52
2023-04-08T01:09:56.556Z,18.80
2023-04-08T01:12:32.029Z,19.33
2023-04-08T01:15:03.255Z,19.30
2023-04-08T01:17:31.307Z,19.65
2023-04-08T01:20:03.999Z,17.25
2023-04-08T01:22:49.005Z,17.10
2023-04-08T01:25:19.837Z,19.63
2023-04-08T01:27:48.476Z,23.75
2023-04-08T01:30:17.219Z,23.17
2023-04-08T01:32:44.926Z,17.85
2023-04-08T01:35:11.691Z,21.33
2023-04-08T01:37:39.740Z,23.02
2023-04-08T01:40:09.003Z,23.27
2023-04-08T01:42:36.653Z,19.65
2023-04-08T01:45:04.528Z,18.65
2023-04-08T01:50:00.440Z,16.20
2023-04-08T01:52:29.165Z,14.88
2023-04-08T01:54:55.763Z,18.10
2023-04-08T01:57:31.850Z,16.10
2023-04-08T02:00:01.776Z,17.05
2023-04-08T02:02:29.665Z,19.15
2023-04-08T02:04:56.222Z,20.27
2023-04-08T02:07:22.955Z,17.05
2023-04-08T02:09:50.612Z,20.15
2023-04-08T02:12:17.490Z,19.75
2023-04-08T02:14:44.052Z,18.20
2023-04-08T02:17:14.159Z,23.35
2023-04-08T02:19:46.782Z,20.00
2023-04-08T02:22:19.973Z,18.13
2023-04-08T02:24:47.229Z,17.15
2023-04-08T02:27:14.125Z,16.15
2023-04-08T02:29:42.275Z,18.48
2023-04-08T02:32:12.316Z,18.13
2023-04-08T02:34:41.236Z,20.45
2023-04-08T02:37:08.683Z,20.33
2023-04-08T02:39:35.559Z,19.35
2023-04-08T02:42:02.003Z,19.92
2023-04-08T02:44:28.418Z,20.98
2023-04-08T02:46:54.811Z,18.48
2023-04-08T02:49:21.286Z,20.15
2023-04-08T02:51:47.688Z,21.50
2023-04-08T02:54:14.068Z,19.95
2023-04-08T02:56:40.560Z,18.33
2023-04-08T02:59:07.033Z,19.98
2023-04-08T03:01:33.551Z,20.50
2023-04-08T03:04:00.059Z,21.15
2023-04-08T03:06:27.014Z,20.90
2023-04-08T03:08:53.405Z,22.77
2023-04-08T03:11:20.042Z,18.63
2023-04-08T03:13:46.747Z,19.15
2023-04-08T03:16:13.146Z,19.63
2023-04-08T03:18:39.598Z,21.58
2023-04-08T03:21:06.074Z,21.98
2023-04-08T03:23:32.455Z,23.25
2023-04-08T03:25:58.929Z,22.63
2023-04-08T03:28:25.324Z,21.75
2023-04-08T03:30:51.741Z,21.42
2023-04-08T03:33:18.299Z,23.00
2023-04-08T03:35:44.772Z,21.15
2023-04-08T03:38:11.696Z,24.58
2023-04-08T03:40:38.074Z,24.17
2023-04-08T03:43:06.582Z,26.48
2023-04-08T03:45:32.985Z,25.05
2023-04-08T03:47:59.450Z,23.40
2023-04-08T03:50:26.022Z,21.27
2023-04-08T03:52:52.523Z,23.83
2023-04-08T03:55:18.981Z,23.45
2023-04-08T03:57:45.917Z,22.00
2023-04-08T04:00:12.961Z,21.77
2023-04-08T04:02:39.518Z,23.35
2023-04-08T04:05:06.556Z,21.13
2023-04-08T04:07:33.113Z,24.27
2023-04-08T04:09:59.474Z,22.05
2023-04-08T04:12:26.558Z,22.35
2023-04-08T04:14:52.959Z,24.35
2023-04-08T04:17:19.368Z,22.52
2023-04-08T04:19:45.820Z,21.13
2023-04-08T04:22:12.268Z,20.13
2023-04-08T04:24:38.637Z,25.13
2023-04-08T04:27:05.322Z,22.98
2023-04-08T04:29:32.865Z,23.20
2023-04-08T04:31:59.232Z,23.77
2023-04-08T04:34:25.782Z,23.85
2023-04-08T04:36:52.286Z,22.35
2023-04-08T04:39:18.674Z,21.17
2023-04-08T04:41:45.371Z,24.63
2023-04-08T04:44:12.085Z,22.80
2023-04-08T04:46:38.702Z,23.20
2023-04-08T04:49:05.390Z,23.73
2023-04-08T04:51:33.262Z,24.33
2023-04-08T04:56:27.061Z,22.42
2023-04-08T04:58:53.412Z,24.88
2023-04-08T05:01:19.973Z,27.05
2023-04-08T05:03:46.556Z,23.90
2023-04-08T05:06:13.081Z,27.25
2023-04-08T05:08:39.539Z,32.40
2023-04-08T05:11:10.336Z,25.10
2023-04-08T05:13:36.759Z,30.17
2023-04-08T05:16:03.191Z,22.70
2023-04-08T05:18:29.599Z,23.95
2023-04-08T05:20:55.934Z,23.50
2023-04-08T05:23:22.366Z,23.45
2023-04-08T05:25:48.844Z,22.45
2023-04-08T05:28:15.510Z,19.83
2023-04-08T05:30:41.981Z,21.42
2023-04-08T05:33:08.494Z,18.27
2023-04-08T05:35:36.122Z,15.60
2023-04-08T05:38:02.658Z,16.75
2023-04-08T05:40:29.111Z,16.13
2023-04-08T05:42:55.855Z,14.75
2023-04-08T05:45:22.363Z,15.00
2023-04-08T05:47:48.818Z,14.27
2023-04-08T05:50:15.404Z,15.55
2023-04-08T05:52:45.507Z,13.80
2023-04-08T05:55:13.050Z,13.50
2023-04-08T05:57:39.879Z,12.25
2023-04-08T06:00:08.241Z,12.88
2023-04-08T06:02:36.067Z,11.48
2023-04-08T06:07:30.644Z,12.20
2023-04-08T06:09:57.040Z,8.90
2023-04-08T06:12:23.535Z,13.60
2023-04-08T06:14:54.595Z,13.18
2023-04-08T06:17:21.480Z,15.73
2023-04-08T06:19:47.981Z,17.02
2023-04-08T06:22:14.338Z,15.63
2023-04-08T06:24:40.874Z,20.30
2023-04-08T06:27:07.331Z,15.68
2023-04-08T06:29:33.861Z,14.07
2023-04-08T06:32:00.568Z,12.27
2023-04-08T06:34:26.984Z,12.32
2023-04-08T06:36:53.507Z,13.30
2023-04-08T06:39:21.274Z,12.20
2023-04-08T06:41:47.762Z,12.20
2023-04-08T06:44:14.296Z,11.00
2023-04-08T06:46:40.820Z,11.80
2023-04-08T06:49:07.791Z,9.88
2023-04-08T06:51:34.381Z,10.23
2023-04-08T06:54:00.721Z,11.15
2023-04-08T06:56:27.437Z,10.52
2023-04-08T06:58:53.805Z,9.63
2023-04-08T07:01:20.600Z,9.32
2023-04-08T07:03:47.376Z,13.00
2023-04-08T07:06:13.938Z,9.55
2023-04-08T07:08:40.588Z,9.77
2023-04-08T07:11:07.789Z,11.55
2023-04-08T07:13:34.255Z,8.57
2023-04-08T07:16:01.387Z,8.93
2023-04-08T07:18:27.766Z,9.43
2023-04-08T07:20:54.220Z,10.63
2023-04-08T07:23:20.645Z,10.38
2023-04-08T07:25:48.239Z,9.20
2023-04-08T07:30:41.107Z,8.90
2023-04-08T07:33:07.565Z,10.35
2023-04-08T07:35:34.282Z,9.60
2023-04-08T07:38:01.083Z,10.70
2023-04-08T07:40:27.588Z,9.05
2023-04-08T07:42:54.358Z,8.88
2023-04-08T07:45:20.797Z,11.15
2023-04-08T07:47:47.457Z,12.45
2023-04-08T07:50:14.198Z,12.23
2023-04-08T07:52:40.640Z,8.60
2023-04-08T07:55:07.496Z,15.07
2023-04-08T07:57:34.096Z,8.90
2023-04-08T08:00:00.658Z,9.07
2023-04-08T08:02:27.152Z,7.68
2023-04-08T08:04:53.722Z,12.10
2023-04-08T08:07:20.279Z,9.52
2023-04-08T08:09:46.661Z,9.30
2023-04-08T08:12:13.300Z,12.27
2023-04-08T08:14:39.964Z,9.80
2023-04-08T08:17:06.361Z,8.88
2023-04-08T08:19:32.769Z,8.80
2023-04-08T08:21:59.194Z,8.70
2023-04-08T08:24:26.049Z,12.55
2023-04-08T08:26:52.431Z,10.68
2023-04-08T08:29:19.109Z,9.52
2023-04-08T08:31:45.656Z,9.65
2023-04-08T08:34:12.171Z,9.88
2023-04-08T08:36:38.645Z,10.38
2023-04-08T08:39:05.146Z,13.20
2023-04-08T08:41:38.024Z,10.20
2023-04-08T08:44:08.620Z,9.15
2023-04-08T08:46:35.447Z,7.15
2023-04-08T08:49:02.248Z,9.48
2023-04-08T08:51:28.786Z,8.45
2023-04-08T08:53:55.237Z,9.18
2023-04-08T08:56:22.056Z,9.80
2023-04-08T08:58:49.117Z,7.97
2023-04-08T09:01:34.910Z,8.10
2023-04-08T09:04:14.410Z,10.48
2023-04-08T09:06:41.259Z,8.95
2023-04-08T09:09:10.711Z,10.05
2023-04-08T09:11:42.638Z,9.88
2023-04-08T09:14:22.790Z,8.45
2023-04-08T09:16:49.514Z,9.52
2023-04-08T09:19:16.181Z,10.05
2023-04-08T09:21:42.713Z,9.68
2023-04-08T09:24:10.117Z,9.05
2023-04-08T09:29:25.163Z,8.57
2023-04-08T09:31:57.820Z,9.80
2023-04-08T09:34:25.762Z,9.02
2023-04-08T09:36:53.608Z,10.40
2023-04-08T09:39:20.373Z,10.00
2023-04-08T09:41:51.095Z,9.43
2023-04-08T09:44:20.786Z,12.85
2023-04-08T09:46:50.365Z,10.18
2023-04-08T09:49:22.821Z,10.57
2023-04-08T09:51:53.614Z,11.02
2023-04-08T09:54:25.549Z,10.15
2023-04-08T09:57:05.477Z,10.23
2023-04-08T09:59:36.756Z,11.25
2023-04-08T10:02:09.566Z,11.63
2023-04-08T10:04:39.524Z,10.55
2023-04-08T10:07:08.451Z,12.07
2023-04-08T10:09:35.616Z,10.38
2023-04-08T10:12:04.287Z,9.73
2023-04-08T10:14:31.323Z,12.50
2023-04-08T10:17:27.715Z,9.77
2023-04-08T10:19:54.422Z,10.60
2023-04-08T10:22:30.041Z,13.80
2023-04-08T10:25:15.437Z,11.00
2023-04-08T10:27:42.066Z,8.73
2023-04-08T10:30:26.684Z,11.05
2023-04-08T10:32:56.903Z,11.35
2023-04-08T10:35:30.351Z,13.90
2023-04-08T10:37:58.662Z,11.65
2023-04-08T10:40:25.449Z,13.70
2023-04-08T10:42:58.781Z,10.05
2023-04-08T10:45:25.319Z,11.13
2023-04-08T10:47:52.169Z,13.00
2023-04-08T10:50:23.619Z,9.75
2023-04-08T10:52:54.328Z,10.82
2023-04-08T10:55:25.572Z,10.80
2023-04-08T10:57:52.946Z,12.32
2023-04-08T11:03:02.954Z,14.20
2023-04-08T11:05:29.464Z,10.63
2023-04-08T11:07:55.953Z,12.95
2023-04-08T11:10:22.378Z,12.35
2023-04-08T11:12:49.836Z,12.98
2023-04-08T11:15:16.475Z,13.85
2023-04-08T11:17:43.782Z,14.05
2023-04-08T11:20:10.954Z,11.80
2023-04-08T11:22:37.428Z,11.88
2023-04-08T11:25:04.275Z,13.23
2023-04-08T11:27:31.032Z,10.75
2023-04-08T11:29:57.710Z,10.93
2023-04-08T11:32:24.175Z,12.23
2023-04-08T11:34:50.993Z,12.65
2023-04-08T11:37:17.521Z,12.68
2023-04-08T11:39:44.546Z,10.32
2023-04-08T11:42:29.885Z,13.10
2023-04-08T11:44:56.789Z,11.05
2023-04-08T11:47:31.925Z,12.20
2023-04-08T11:49:58.540Z,13.80
2023-04-08T11:52:44.887Z,13.52
2023-04-08T11:55:12.794Z,12.50
2023-04-08T11:57:39.552Z,11.90
2023-04-08T12:00:07.108Z,13.82
2023-04-08T12:05:00.158Z,13.10
2023-04-08T12:07:26.998Z,12.48
2023-04-08T12:09:53.642Z,13.68
2023-04-08T12:12:20.006Z,14.02
2023-04-08T12:14:46.429Z,14.90
2023-04-08T12:17:12.839Z,14.90
2023-04-08T12:19:39.306Z,15.00
2023-04-08T12:22:05.966Z,14.75
2023-04-08T12:24:32.985Z,16.52
2023-04-08T12:26:59.416Z,15.27
2023-04-08T12:29:25.764Z,14.85
2023-04-08T12:31:53.336Z,15.85
2023-04-08T12:36:47.754Z,11.07
2023-04-08T12:39:14.423Z,14.98
2023-04-08T12:41:40.878Z,17.75
2023-04-08T12:44:07.782Z,14.00
2023-04-08T12:46:34.468Z,14.02
2023-04-08T12:49:04.677Z,13.30
2023-04-08T12:51:32.291Z,14.55
2023-04-08T12:54:00.647Z,14.60
2023-04-08T12:56:27.141Z,14.75
2023-04-08T12:58:53.567Z,14.15
2023-04-08T13:01:20.024Z,13.77
2023-04-08T13:03:47.834Z,14.52
2023-04-08T13:06:14.558Z,13.82
2023-04-08T13:08:41.278Z,13.80
2023-04-08T13:11:08.430Z,13.25
2023-04-08T13:13:35.432Z,14.32
2023-04-08T13:16:02.401Z,13.98
2023-04-08T13:18:29.135Z,15.05
2023-04-08T13:20:55.555Z,15.45
2023-04-08T13:23:22.102Z,16.08
2023-04-08T13:25:48.596Z,14.15
2023-04-08T13:28:15.571Z,12.60
2023-04-08T13:30:42.568Z,13.98
2023-04-08T13:33:09.173Z,13.73
2023-04-08T13:35:35.696Z,13.30
2023-04-08T13:38:02.086Z,15.25
2023-04-08T13:40:28.805Z,12.68
2023-04-08T13:42:55.838Z,14.23
2023-04-08T13:45:22.406Z,15.13
2023-04-08T13:47:48.828Z,17.35
2023-04-08T13:50:15.700Z,15.48
2023-04-08T13:52:42.148Z,11.75
2023-04-08T13:55:08.596Z,11.82
2023-04-08T13:57:35.584Z,13.00
2023-04-08T14:00:02.229Z,12.50
2023-04-08T14:02:28.778Z,13.55
2023-04-08T14:04:55.524Z,14.73
2023-04-08T14:07:21.961Z,12.05
2023-04-08T14:09:48.333Z,12.73
2023-04-08T14:12:15.026Z,15.68
2023-04-08T14:14:41.513Z,14.20
2023-04-08T14:17:08.035Z,17.92
2023-04-08T14:19:35.010Z,12.70
2023-04-08T14:22:01.716Z,14.85
2023-04-08T14:24:28.166Z,16.23
2023-04-08T14:26:54.873Z,15.95
2023-04-08T14:29:21.250Z,12.90
2023-04-08T14:31:47.667Z,14.50
2023-04-08T14:34:14.098Z,14.15
2023-04-08T14:36:40.604Z,13.25
2023-04-08T14:39:07.213Z,13.23
2023-04-08T14:41:33.589Z,12.98
2023-04-08T14:44:00.005Z,13.48
2023-04-08T14:46:28.747Z,12.30
2023-04-08T14:48:55.459Z,14.60
2023-04-08T14:51:21.787Z,15.38
2023-04-08T14:53:48.272Z,13.60
2023-04-08T14:56:14.711Z,15.80
2023-04-08T14:58:41.107Z,14.82
2023-04-08T15:01:07.547Z,13.57
2023-04-08T15:03:34.311Z,17.55
2023-04-08T15:06:01.325Z,12.63
2023-04-08T15:08:27.925Z,16.05
2023-04-08T15:10:54.441Z,14.57
2023-04-08T15:13:20.901Z,13.45
2023-04-08T15:15:47.424Z,13.07
2023-04-08T15:18:14.148Z,19.08
2023-04-08T15:20:40.595Z,15.27
2023-04-08T15:23:07.827Z,15.38
2023-04-08T15:25:34.403Z,17.08
2023-04-08T15:28:02.595Z,12.80
2023-04-08T15:30:34.989Z,12.32
2023-04-08T15:33:05.077Z,11.95
2023-04-08T15:35:32.742Z,15.45
2023-04-08T15:37:59.310Z,12.88
2023-04-08T15:40:25.855Z,14.57
2023-04-08T15:42:52.881Z,12.95
2023-04-08T15:45:19.378Z,13.43
2023-04-08T15:47:46.063Z,14.63
2023-04-08T15:50:12.750Z,13.52
2023-04-08T15:52:39.411Z,14.18
2023-04-08T15:55:06.564Z,15.50
2023-04-08T15:57:33.243Z,15.18
2023-04-08T15:59:59.944Z,16.02
2023-04-08T16:02:26.390Z,17.25
2023-04-08T16:04:52.855Z,16.27
2023-04-08T16:07:19.294Z,16.55
2023-04-08T16:09:45.885Z,14.35
2023-04-08T16:12:12.484Z,14.10
2023-04-08T16:14:39.335Z,15.38
2023-04-08T16:17:06.302Z,16.20
2023-04-08T16:19:32.961Z,15.27
2023-04-08T16:21:59.348Z,15.18
2023-04-08T16:24:25.871Z,15.57
2023-04-08T16:26:52.605Z,13.77
2023-04-08T16:29:19.049Z,12.02
2023-04-08T16:31:45.573Z,15.40
2023-04-08T16:34:12.370Z,11.80
2023-04-08T16:36:38.881Z,12.32
2023-04-08T16:39:05.299Z,13.60
2023-04-08T16:41:31.750Z,10.55
2023-04-08T16:43:58.397Z,11.75
2023-04-08T16:46:24.928Z,13.43
2023-04-08T16:48:51.374Z,10.35
2023-04-08T16:51:18.653Z,13.13
2023-04-08T16:53:45.030Z,11.43
2023-04-08T16:56:17.593Z,12.48
2023-04-08T16:58:44.301Z,11.57
2023-04-08T17:01:13.987Z,12.13
2023-04-08T17:03:40.743Z,10.77
2023-04-08T17:06:08.708Z,11.25
2023-04-08T17:08:35.141Z,11.10
2023-04-08T17:11:10.378Z,9.38
2023-04-08T17:13:38.888Z,10.65
2023-04-08T17:18:32.034Z,10.18
2023-04-08T17:20:58.714Z,9.95
2023-04-08T17:23:25.238Z,12.30
2023-04-08T17:25:51.694Z,8.43
2023-04-08T17:28:18.837Z,9.68
2023-04-08T17:30:45.221Z,8.20
2023-04-08T17:33:11.664Z,10.27
2023-04-08T17:35:38.174Z,8.40
2023-04-08T17:38:04.639Z,7.95
2023-04-08T17:40:31.268Z,8.23
2023-04-08T17:42:57.964Z,8.68
2023-04-08T17:45:25.347Z,7.38
2023-04-08T17:47:52.166Z,9.20
2023-04-08T17:50:18.799Z,7.93
2023-04-08T17:52:48.614Z,11.00
2023-04-08T17:55:15.425Z,8.43
2023-04-08T17:57:42.421Z,9.40
2023-04-08T18:00:09.243Z,8.65
2023-04-08T18:02:36.932Z,8.90
2023-04-08T18:05:04.190Z,9.82
2023-04-08T18:07:30.801Z,11.38
2023-04-08T18:09:57.278Z,10.45
2023-04-08T18:12:23.712Z,10.25
2023-04-08T18:14:50.095Z,10.15
2023-04-08T18:17:16.467Z,9.07
2023-04-08T18:19:42.983Z,9.90
2023-04-08T18:22:09.450Z,11.75
2023-04-08T18:24:37.174Z,19.55
2023-04-08T18:29:31.716Z,12.43
2023-04-08T18:31:58.168Z,12.57
2023-04-08T18:34:25.346Z,11.60
2023-04-08T18:36:52.095Z,17.98
2023-04-08T18:39:18.838Z,8.65
2023-04-08T18:41:45.233Z,9.75
2023-04-08T18:44:12.066Z,14.10
2023-04-08T18:46:38.930Z,10.13
2023-04-08T18:49:05.544Z,10.23
2023-04-08T18:51:33.395Z,12.20
2023-04-08T18:53:59.778Z,10.15
2023-04-08T18:56:26.662Z,9.45
2023-04-08T18:58:54.673Z,10.00
2023-04-08T19:01:21.182Z,10.25
2023-04-08T19:03:47.723Z,11.48
2023-04-08T19:06:16.133Z,10.93
2023-04-08T19:08:42.564Z,10.43
2023-04-08T19:11:09.026Z,12.23
2023-04-08T19:13:35.420Z,11.55
2023-04-08T19:16:02.004Z,10.63
2023-04-08T19:18:28.447Z,11.93
2023-04-08T19:20:55.048Z,10.20
2023-04-08T19:23:21.504Z,14.38
2023-04-08T19:25:47.928Z,10.77
2023-04-08T19:28:14.444Z,11.15
2023-04-08T19:30:41.353Z,11.13
2023-04-08T19:33:08.916Z,12.65
2023-04-08T19:35:35.531Z,12.00
2023-04-08T19:38:02.323Z,11.90
2023-04-08T19:40:28.803Z,15.60
2023-04-08T19:42:55.478Z,13.38
2023-04-08T19:45:21.830Z,13.38
2023-04-08T19:47:49.082Z,12.93
2023-04-08T19:50:15.478Z,13.63
2023-04-08T19:52:41.967Z,11.93
2023-04-08T19:55:10.284Z,11.82
2023-04-08T19:57:37.103Z,12.13
2023-04-08T20:00:04.468Z,13.93
2023-04-08T20:02:31.110Z,13.07
2023-04-08T20:04:57.744Z,12.88
2023-04-08T20:07:24.455Z,11.63
2023-04-08T20:09:50.915Z,14.27
2023-04-08T20:12:17.293Z,12.02
2023-04-08T20:14:44.928Z,11.57
2023-04-08T20:17:12.406Z,12.65
2023-04-08T20:19:38.886Z,16.60
2023-04-08T20:22:05.246Z,15.75
2023-04-08T20:24:31.708Z,13.50
2023-04-08T20:26:59.008Z,15.85
2023-04-08T20:29:25.703Z,14.00
2023-04-08T20:31:52.210Z,15.05
2023-04-08T20:34:18.921Z,12.32
2023-04-08T20:36:45.412Z,15.35
2023-04-08T20:39:12.129Z,12.45
2023-04-08T20:41:38.651Z,15.30
2023-04-08T20:44:10.443Z,12.35
2023-04-08T20:46:37.897Z,13.88
2023-04-08T20:49:04.688Z,14.35
2023-04-08T20:51:33.623Z,15.98
2023-04-08T20:54:00.162Z,15.88
2023-04-08T20:56:26.637Z,16.60
2023-04-08T20:58:53.442Z,16.90
2023-04-08T21:01:20.318Z,14.30
2023-04-08T21:03:46.861Z,12.85
2023-04-08T21:06:19.851Z,12.48
2023-04-08T21:08:47.157Z,15.40
2023-04-08T21:11:14.362Z,13.80
2023-04-08T21:13:40.852Z,13.30
2023-04-08T21:16:07.661Z,13.55
2023-04-08T21:18:34.812Z,13.98
2023-04-08T21:21:01.522Z,15.23
2023-04-08T21:23:28.169Z,13.40
2023-04-08T21:25:54.645Z,14.65
2023-04-08T21:28:21.015Z,16.05
2023-04-08T21:30:47.350Z,15.18
2023-04-08T21:33:14.337Z,16.20
2023-04-08T21:35:41.014Z,15.02
2023-04-08T21:40:35.201Z,13.25
2023-04-08T21:43:01.560Z,14.00
2023-04-08T21:45:28.060Z,15.80
2023-04-08T21:47:55.106Z,15.70
2023-04-08T21:50:21.620Z,15.38
2023-04-08T21:52:48.068Z,19.88
2023-04-08T21:55:14.701Z,18.75
2023-04-08T21:57:41.509Z,17.38
2023-04-08T22:00:13.160Z,14.93
2023-04-08T22:02:42.445Z,17.13
2023-04-08T22:07:50.335Z,15.30
2023-04-08T22:10:17.043Z,17.23
2023-04-08T22:12:43.444Z,15.07
2023-04-08T22:15:10.456Z,16.98
2023-04-08T22:17:36.903Z,14.95
2023-04-08T22:20:03.494Z,16.58
2023-04-08T22:22:29.953Z,19.90
2023-04-08T22:24:56.427Z,16.35
2023-04-08T22:27:23.102Z,16.58
2023-04-08T22:29:49.553Z,24.90
2023-04-08T22:32:18.088Z,13.93
2023-04-08T22:34:44.548Z,14.70
2023-04-08T22:37:11.799Z,16.25
2023-04-08T22:39:38.259Z,16.25
2023-04-08T22:42:04.716Z,15.23
2023-04-08T22:44:31.236Z,17.05
2023-04-08T22:46:57.721Z,17.48
2023-04-08T22:49:24.188Z,17.70
2023-04-08T22:51:50.822Z,17.50
2023-04-08T22:54:18.054Z,15.38
2023-04-08T22:56:44.511Z,16.55
2023-04-08T22:59:10.978Z,17.45
2023-04-08T23:01:37.564Z,17.15
2023-04-08T23:04:04.405Z,19.95
2023-04-08T23:06:31.257Z,16.10
2023-04-08T23:08:57.677Z,16.15
2023-04-08T23:11:24.114Z,16.25
2023-04-08T23:13:50.752Z,17.23
2023-04-08T23:16:17.267Z,17.95
2023-04-08T23:18:43.643Z,14.75
2023-04-08T23:21:10.144Z,17.38
2023-04-08T23:23:36.567Z,17.17
2023-04-08T23:26:03.004Z,17.92
2023-04-08T23:28:29.458Z,16.23
2023-04-08T23:30:56.137Z,17.15
2023-04-08T23:33:22.593Z,17.35
2023-04-08T23:35:49.089Z,16.48
2023-04-08T23:38:15.876Z,20.52
2023-04-08T23:40:42.265Z,20.40
2023-04-08T23:43:08.680Z,21.05
2023-04-08T23:45:35.186Z,20.42
2023-04-08T23:48:01.577Z,18.90
2023-04-08T23:50:27.996Z,20.02
2023-04-08T23:52:54.409Z,19.25
2023-04-08T23:55:20.870Z,20.00
2023-04-08T23:57:49.197Z,17.42
